createdAt,value
2019-04-06T00:00:59.291Z,25.07
2019-04-06T00:03:28.025Z,21.87
2019-04-06T00:05:57.269Z,19.83
2019-04-06T00:08:27.098Z,22.90
2019-04-06T00:10:57.704Z,19.00
2019-04-06T00:13:27.012Z,22.93
2019-04-06T00:15:55.825Z,25.83
2019-04-06T00:18:25.269Z,25.43
2019-04-06T00:20:54.475Z,23.20
2019-04-06T00:23:23.404Z,22.07
2019-04-06T00:25:53.918Z,25.70
2019-04-06T00:28:23.582Z,23.27
2019-04-06T00:31:09.005Z,21.63
2019-04-06T00:33:39.753Z,23.73
2019-04-06T00:36:09.315Z,26.77
2019-04-06T00:38:38.589Z,24.90
2019-04-06T00:41:09.944Z,23.73
2019-04-06T00:43:38.821Z,19.13
2019-04-06T00:46:12.974Z,22.13
2019-04-06T00:48:42.249Z,21.67
2019-04-06T00:51:11.086Z,21.87
2019-04-06T00:53:39.980Z,24.73
2019-04-06T00:56:08.615Z,20.20
2019-04-06T00:58:37.242Z,23.67
2019-04-06T01:01:07.229Z,20.70
2019-04-06T01:03:39.087Z,20.83
2019-04-06T01:06:09.029Z,22.47
2019-04-06T01:08:38.737Z,26.00
2019-04-06T01:11:07.755Z,24.50
2019-04-06T01:13:38.163Z,22.80
2019-04-06T01:16:07.097Z,21.87
2019-04-06T01:18:35.772Z,21.37
2019-04-06T01:21:06.583Z,21.50
2019-04-06T01:23:36.537Z,25.20
2019-04-06T01:26:07.909Z,21.73
2019-04-06T01:28:36.957Z,21.10
2019-04-06T01:31:06.223Z,20.83
2019-04-06T01:33:39.548Z,21.00
2019-04-06T01:36:30.565Z,27.70
2019-04-06T01:38:39.272Z,23.10
2019-04-06T01:41:08.710Z,20.83
2019-04-06T01:43:37.747Z,21.67
2019-04-06T01:46:07.951Z,18.90
2019-04-06T01:48:40.249Z,21.50
2019-04-06T01:51:13.237Z,19.27
2019-04-06T01:53:45.075Z,24.13
2019-04-06T01:56:18.717Z,24.37
2019-04-06T01:58:47.538Z,22.37
2019-04-06T02:01:20.534Z,20.83
2019-04-06T02:03:49.362Z,18.67
2019-04-06T02:06:18.817Z,18.83
2019-04-06T02:08:47.768Z,20.80
2019-04-06T02:11:18.059Z,20.07
2019-04-06T02:13:47.447Z,21.57
2019-04-06T02:16:16.283Z,22.03
2019-04-06T02:18:50.523Z,20.27
2019-04-06T02:21:19.318Z,22.23
2019-04-06T02:23:48.157Z,19.27
2019-04-06T02:26:17.551Z,17.23
2019-04-06T02:28:48.711Z,20.30
2019-04-06T02:31:25.264Z,24.10
2019-04-06T02:34:10.587Z,25.47
2019-04-06T02:37:00.475Z,19.90
2019-04-06T02:39:47.318Z,19.63
2019-04-06T02:42:21.979Z,22.03
2019-04-06T02:44:52.139Z,23.33
2019-04-06T02:47:20.925Z,18.60
2019-04-06T02:49:52.328Z,18.40
2019-04-06T02:52:24.831Z,30.67
2019-04-06T02:54:55.159Z,24.10
2019-04-06T02:57:25.580Z,19.77
2019-04-06T02:59:55.897Z,20.27
2019-04-06T03:02:25.181Z,20.43
2019-04-06T03:04:54.624Z,22.03
2019-04-06T03:07:24.986Z,20.17
2019-04-06T03:09:58.491Z,21.87
2019-04-06T03:12:32.195Z,23.93
2019-04-06T03:14:59.100Z,19.00
2019-04-06T03:17:29.581Z,25.83
2019-04-06T03:19:58.470Z,21.93
2019-04-06T03:22:28.641Z,19.70
2019-04-06T03:25:00.403Z,25.67
2019-04-06T03:27:29.171Z,22.87
2019-04-06T03:29:59.160Z,20.87
2019-04-06T03:32:28.349Z,27.40
2019-04-06T03:34:57.204Z,19.30
2019-04-06T03:37:26.152Z,21.60
2019-04-06T03:39:54.939Z,23.27
2019-04-06T03:42:23.645Z,22.90
2019-04-06T03:44:52.956Z,24.17
2019-04-06T03:47:21.896Z,22.77
2019-04-06T03:49:51.713Z,20.47
2019-04-06T03:52:25.134Z,23.17
2019-04-06T03:54:51.120Z,19.77
2019-04-06T03:57:19.865Z,19.30
2019-04-06T03:59:48.668Z,24.90
2019-04-06T04:02:17.576Z,19.37
2019-04-06T04:04:47.100Z,33.97
2019-04-06T04:07:17.375Z,21.20
2019-04-06T04:09:46.580Z,28.93
2019-04-06T04:12:15.374Z,25.53
2019-04-06T04:14:47.437Z,19.73
2019-04-06T04:17:17.697Z,23.53
2019-04-06T04:19:46.528Z,24.53
2019-04-06T04:22:15.206Z,26.30
2019-04-06T04:24:45.111Z,21.57
2019-04-06T04:27:27.348Z,22.27
2019-04-06T04:29:46.459Z,20.30
2019-04-06T04:32:15.208Z,26.53
2019-04-06T04:34:44.227Z,24.93
2019-04-06T04:37:13.021Z,24.07
2019-04-06T04:39:41.988Z,23.47
2019-04-06T04:42:12.205Z,25.90
2019-04-06T04:44:41.089Z,25.80
2019-04-06T04:47:09.814Z,25.00
2019-04-06T04:49:38.559Z,21.17
2019-04-06T04:52:08.406Z,21.97
2019-04-06T04:54:38.602Z,23.33
2019-04-06T04:57:08.137Z,19.60
2019-04-06T04:59:38.645Z,22.47
2019-04-06T05:02:07.433Z,22.13
2019-04-06T05:04:36.141Z,24.90
2019-04-06T05:07:05.692Z,24.73
2019-04-06T05:09:34.645Z,28.07
2019-04-06T05:12:03.435Z,23.03
2019-04-06T05:15:00.694Z,21.70
2019-04-06T05:17:29.836Z,25.37
2019-04-06T05:19:58.447Z,23.77
2019-04-06T05:22:27.584Z,24.30
2019-04-06T05:24:57.749Z,23.07
2019-04-06T05:27:28.057Z,22.77
2019-04-06T05:30:01.599Z,22.73
2019-04-06T05:32:30.413Z,20.10
2019-04-06T05:34:59.163Z,23.87
2019-04-06T05:40:17.416Z,19.67
2019-04-06T05:42:47.982Z,19.63
2019-04-06T05:45:18.149Z,21.97
2019-04-06T05:47:49.215Z,24.43
2019-04-06T05:50:21.576Z,19.60
2019-04-06T05:52:50.435Z,26.03
2019-04-06T05:55:19.325Z,22.17
2019-04-06T05:57:48.131Z,22.33
2019-04-06T06:00:18.553Z,22.53
2019-04-06T06:02:47.305Z,22.10
2019-04-06T06:05:21.906Z,21.00
2019-04-06T06:07:50.694Z,20.27
2019-04-06T06:10:20.288Z,22.27
2019-04-06T06:12:49.180Z,20.87
2019-04-06T06:15:18.020Z,25.60
2019-04-06T06:17:49.131Z,18.90
2019-04-06T06:20:19.204Z,20.23
2019-04-06T06:22:47.943Z,23.53
2019-04-06T06:25:20.409Z,20.67
2019-04-06T06:27:52.192Z,28.20
2019-04-06T06:30:21.262Z,18.03
2019-04-06T06:32:50.725Z,22.20
2019-04-06T06:35:19.964Z,17.20
2019-04-06T06:37:53.379Z,18.90
2019-04-06T06:40:26.702Z,22.43
2019-04-06T06:42:58.318Z,20.20
2019-04-06T06:45:33.448Z,19.73
2019-04-06T06:48:02.360Z,17.83
2019-04-06T06:50:34.762Z,21.50
2019-04-06T06:53:05.138Z,18.63
2019-04-06T06:55:35.850Z,19.27
2019-04-06T06:58:09.073Z,18.50
2019-04-06T07:00:43.279Z,16.67
2019-04-06T07:03:14.989Z,18.00
2019-04-06T07:05:46.628Z,20.03
2019-04-06T07:08:15.320Z,21.27
2019-04-06T07:10:45.912Z,19.13
2019-04-06T07:13:14.604Z,23.33
2019-04-06T07:15:44.775Z,18.93
2019-04-06T07:18:15.418Z,20.03
2019-04-06T07:20:45.483Z,18.67
2019-04-06T07:23:15.719Z,18.83
2019-04-06T07:25:56.834Z,15.00
2019-04-06T07:28:18.483Z,16.97
2019-04-06T07:30:49.184Z,15.57
2019-04-06T07:33:20.063Z,19.93
2019-04-06T07:35:51.692Z,16.27
2019-04-06T07:38:21.957Z,19.43
2019-04-06T07:40:55.373Z,17.10
2019-04-06T07:43:31.791Z,21.27
2019-04-06T07:46:03.132Z,23.13
2019-04-06T07:48:32.601Z,17.00
2019-04-06T07:51:04.867Z,20.10
2019-04-06T07:53:41.540Z,18.13
2019-04-06T07:56:24.104Z,18.33
2019-04-06T07:59:02.736Z,22.67
2019-04-06T08:01:37.111Z,15.60
2019-04-06T08:04:26.127Z,20.00
2019-04-06T08:06:58.818Z,17.73
2019-04-06T08:09:27.897Z,19.20
2019-04-06T08:11:59.060Z,18.07
2019-04-06T08:14:29.195Z,15.80
2019-04-06T08:17:00.911Z,18.03
2019-04-06T08:19:31.355Z,14.70
2019-04-06T08:22:02.695Z,13.93
2019-04-06T08:24:33.768Z,15.63
2019-04-06T08:27:06.008Z,14.60
2019-04-06T08:29:36.082Z,19.73
2019-04-06T08:32:08.025Z,18.70
2019-04-06T08:34:42.418Z,15.03
2019-04-06T08:37:12.175Z,18.60
2019-04-06T08:39:52.093Z,17.23
2019-04-06T08:42:24.037Z,16.97
2019-04-06T08:44:54.679Z,12.30
2019-04-06T08:47:24.746Z,16.33
2019-04-06T08:49:55.081Z,13.97
2019-04-06T08:52:26.805Z,22.03
2019-04-06T08:54:55.596Z,14.60
2019-04-06T08:57:24.638Z,15.70
2019-04-06T08:59:55.872Z,15.40
2019-04-06T09:02:30.768Z,15.10
2019-04-06T09:05:01.171Z,17.37
2019-04-06T09:07:31.548Z,18.70
2019-04-06T09:10:04.699Z,14.03
2019-04-06T09:12:39.803Z,16.27
2019-04-06T09:15:17.908Z,15.17
2019-04-06T09:17:51.814Z,13.23
2019-04-06T09:20:22.086Z,13.57
2019-04-06T09:22:54.128Z,14.17
2019-04-06T09:25:28.440Z,18.43
2019-04-06T09:27:57.168Z,14.27
2019-04-06T09:30:27.422Z,14.80
2019-04-06T09:32:56.092Z,13.93
2019-04-06T09:35:26.966Z,14.80
2019-04-06T09:37:55.782Z,12.97
2019-04-06T09:40:30.289Z,9.90
2019-04-06T09:42:59.951Z,14.97
2019-04-06T09:45:42.308Z,12.40
2019-04-06T09:48:19.437Z,15.93
2019-04-06T09:51:05.746Z,13.90
2019-04-06T09:53:51.024Z,14.27
2019-04-06T09:56:39.372Z,15.77
2019-04-06T09:59:20.561Z,13.10
2019-04-06T10:01:50.824Z,14.97
2019-04-06T10:04:24.328Z,16.87
2019-04-06T10:07:19.329Z,17.33
2019-04-06T10:10:10.033Z,15.03
2019-04-06T10:12:41.424Z,17.70
2019-04-06T10:15:15.787Z,15.53
2019-04-06T10:18:07.627Z,14.43
2019-04-06T10:20:48.410Z,15.43
2019-04-06T10:23:45.736Z,15.37
2019-04-06T10:26:19.130Z,20.63
2019-04-06T10:29:05.169Z,15.03
2019-04-06T10:31:53.270Z,15.03
2019-04-06T10:34:27.773Z,15.80
2019-04-06T10:37:14.494Z,11.90
2019-04-06T10:39:53.549Z,15.37
2019-04-06T10:42:30.525Z,16.37
2019-04-06T10:45:04.994Z,12.23
2019-04-06T10:47:39.786Z,14.73
2019-04-06T10:50:16.311Z,14.53
2019-04-06T10:53:01.488Z,14.13
2019-04-06T10:55:35.366Z,17.73
2019-04-06T10:58:12.672Z,14.63
2019-04-06T11:00:42.998Z,18.93
2019-04-06T11:03:18.863Z,15.97
2019-04-06T11:05:55.606Z,16.37
2019-04-06T11:08:43.419Z,13.23
2019-04-06T11:11:20.128Z,15.83
2019-04-06T11:13:56.333Z,20.00
2019-04-06T11:16:31.903Z,15.27
2019-04-06T11:19:19.488Z,18.77
2019-04-06T11:21:54.402Z,19.37
2019-04-06T11:24:47.459Z,16.93
2019-04-06T11:27:22.920Z,11.70
2019-04-06T11:30:14.717Z,10.67
2019-04-06T11:33:01.099Z,16.57
2019-04-06T11:35:49.628Z,16.57
2019-04-06T11:38:35.822Z,16.73
2019-04-06T11:44:14.436Z,15.27
2019-04-06T11:46:47.338Z,12.10
2019-04-06T11:49:20.147Z,13.03
2019-04-06T11:51:57.863Z,12.97
2019-04-06T11:54:34.903Z,14.53
2019-04-06T11:57:11.010Z,12.17
2019-04-06T11:59:59.649Z,15.87
2019-04-06T12:02:43.111Z,14.23
2019-04-06T12:05:30.455Z,11.00
2019-04-06T12:08:02.573Z,15.60
2019-04-06T12:10:54.195Z,14.77
2019-04-06T12:13:32.836Z,13.37
2019-04-06T12:16:04.510Z,15.70
2019-04-06T12:18:54.691Z,17.03
2019-04-06T12:21:31.950Z,13.27
2019-04-06T12:24:07.228Z,11.67
2019-04-06T12:26:55.355Z,12.10
2019-04-06T12:29:26.888Z,12.93
2019-04-06T12:32:02.547Z,14.17
2019-04-06T12:34:36.114Z,14.27
2019-04-06T12:37:26.121Z,16.03
2019-04-06T12:40:11.035Z,13.97
2019-04-06T12:42:41.512Z,12.13
2019-04-06T12:45:16.692Z,18.33
2019-04-06T12:47:52.665Z,14.23
2019-04-06T12:50:42.011Z,13.83
2019-04-06T12:53:14.276Z,17.40
2019-04-06T12:55:51.923Z,15.60
2019-04-06T12:58:45.264Z,13.17
2019-04-06T13:01:34.300Z,17.77
2019-04-06T13:04:28.415Z,15.03
2019-04-06T13:07:22.058Z,16.67
2019-04-06T13:10:10.653Z,14.73
2019-04-06T13:12:50.949Z,15.03
2019-04-06T13:15:35.403Z,14.03
2019-04-06T13:18:19.510Z,15.63
2019-04-06T13:20:53.183Z,20.63
2019-04-06T13:23:35.562Z,21.07
2019-04-06T13:26:25.198Z,18.63
2019-04-06T13:29:09.675Z,23.40
2019-04-06T13:31:49.996Z,15.43
2019-04-06T13:34:26.440Z,12.70
2019-04-06T13:36:59.814Z,13.20
2019-04-06T13:39:47.414Z,15.17
2019-04-06T13:42:27.285Z,18.50
2019-04-06T13:45:17.028Z,15.83
2019-04-06T13:47:51.855Z,19.43
2019-04-06T13:50:25.276Z,22.47
2019-04-06T13:53:04.870Z,13.53
2019-04-06T13:55:40.986Z,12.17
2019-04-06T13:58:25.595Z,14.20
2019-04-06T14:01:16.231Z,24.73
2019-04-06T14:04:03.730Z,16.90
2019-04-06T14:07:00.821Z,18.10
2019-04-06T14:09:37.655Z,12.80
2019-04-06T14:12:17.772Z,15.37
2019-04-06T14:14:58.780Z,18.40
2019-04-06T14:17:51.338Z,13.77
2019-04-06T14:20:26.463Z,14.53
2019-04-06T14:23:17.241Z,17.93
2019-04-06T14:25:59.995Z,20.83
2019-04-06T14:28:40.469Z,14.80
2019-04-06T14:31:27.953Z,14.80
2019-04-06T14:33:53.197Z,15.80
2019-04-06T14:36:24.636Z,14.27
2019-04-06T14:39:07.456Z,16.43
2019-04-06T14:41:40.711Z,16.43
2019-04-06T14:44:20.020Z,16.83
2019-04-06T14:46:53.895Z,20.07
2019-04-06T14:49:43.649Z,15.43
2019-04-06T14:52:31.752Z,15.60
2019-04-06T14:55:02.481Z,14.80
2019-04-06T14:57:34.952Z,17.27
2019-04-06T15:00:25.766Z,18.93
2019-04-06T15:03:12.717Z,16.83
2019-04-06T15:05:45.386Z,20.00
2019-04-06T15:08:26.928Z,19.03
2019-04-06T15:11:08.732Z,14.30
2019-04-06T15:13:45.198Z,20.80
2019-04-06T15:16:18.341Z,16.50
2019-04-06T15:18:55.622Z,18.03
2019-04-06T15:21:33.311Z,17.67
2019-04-06T15:24:06.255Z,19.07
2019-04-06T15:26:43.132Z,14.97
2019-04-06T15:29:40.161Z,15.10
2019-04-06T15:32:25.739Z,19.43
2019-04-06T15:37:56.788Z,18.73
2019-04-06T15:40:44.534Z,23.03
2019-04-06T15:43:33.913Z,19.43
2019-04-06T15:46:26.127Z,17.60
2019-04-06T15:49:12.796Z,16.10
2019-04-06T15:52:11.023Z,14.07
2019-04-06T15:54:38.093Z,15.73
2019-04-06T15:57:37.333Z,19.27
2019-04-06T16:00:10.651Z,23.60
2019-04-06T16:03:01.381Z,14.70
2019-04-06T16:05:36.368Z,15.73
2019-04-06T16:08:12.431Z,13.73
2019-04-06T16:10:54.358Z,14.87
2019-04-06T16:13:24.608Z,17.37
2019-04-06T16:16:01.590Z,18.17
2019-04-06T16:18:46.219Z,17.57
2019-04-06T16:21:35.357Z,20.93
2019-04-06T16:24:13.733Z,19.20
2019-04-06T16:27:00.135Z,15.60
2019-04-06T16:29:31.170Z,20.10
2019-04-06T16:32:11.538Z,17.57
2019-04-06T16:34:44.600Z,16.77
2019-04-06T16:37:28.639Z,19.60
2019-04-06T16:40:03.864Z,25.93
2019-04-06T16:42:45.233Z,23.70
2019-04-06T16:45:26.402Z,23.03
2019-04-06T16:48:04.981Z,16.50
2019-04-06T16:50:37.609Z,16.07
2019-04-06T16:53:09.575Z,23.87
2019-04-06T16:55:42.758Z,16.23
2019-04-06T16:58:15.844Z,17.80
2019-04-06T17:00:56.572Z,20.97
2019-04-06T17:03:35.640Z,16.43
2019-04-06T17:06:12.036Z,17.87
2019-04-06T17:08:59.957Z,17.43
2019-04-06T17:11:33.923Z,22.30
2019-04-06T17:14:16.278Z,19.87
2019-04-06T17:17:06.222Z,28.63
2019-04-06T17:19:55.415Z,22.80
2019-04-06T17:22:33.586Z,27.83
2019-04-06T17:25:14.687Z,19.77
2019-04-06T17:28:04.315Z,26.07
2019-04-06T17:30:38.258Z,23.43
2019-04-06T17:33:27.268Z,24.10
2019-04-06T17:36:17.974Z,19.43
2019-04-06T17:38:53.393Z,22.17
2019-04-06T17:41:27.033Z,20.27
2019-04-06T17:44:02.377Z,24.67
2019-04-06T17:46:54.801Z,29.17
2019-04-06T17:49:42.810Z,25.20
2019-04-06T17:52:30.656Z,20.13
2019-04-06T17:55:19.187Z,21.60
2019-04-06T17:57:54.905Z,21.77
2019-04-06T18:00:32.982Z,27.37
2019-04-06T18:03:25.226Z,25.03
2019-04-06T18:06:05.850Z,23.73
2019-04-06T18:08:48.504Z,25.57
2019-04-06T18:11:29.538Z,26.73
2019-04-06T18:14:03.050Z,32.03
2019-04-06T18:16:35.312Z,29.27
2019-04-06T18:19:07.342Z,28.53
2019-04-06T18:21:51.716Z,23.27
2019-04-06T18:24:22.813Z,36.17
2019-04-06T18:27:01.698Z,26.13
2019-04-06T18:29:30.931Z,34.33
2019-04-06T18:32:03.964Z,27.20
2019-04-06T18:34:36.572Z,31.20
2019-04-06T18:37:24.608Z,28.73
2019-04-06T18:39:54.824Z,31.57
2019-04-06T18:42:26.523Z,25.37
2019-04-06T18:44:59.905Z,22.97
2019-04-06T18:47:32.430Z,25.70
2019-04-06T18:50:02.715Z,24.53
2019-04-06T18:52:38.425Z,25.77
2019-04-06T18:55:14.873Z,29.27
2019-04-06T18:58:08.652Z,22.63
2019-04-06T19:00:31.122Z,29.70
2019-04-06T19:03:15.099Z,23.20
2019-04-06T19:05:43.346Z,25.00
2019-04-06T19:08:15.742Z,28.50
2019-04-06T19:10:48.649Z,29.77
2019-04-06T19:13:23.291Z,26.77
2019-04-06T19:15:58.405Z,32.10
2019-04-06T19:18:28.705Z,25.90
2019-04-06T19:21:03.982Z,28.43
2019-04-06T19:23:41.159Z,29.40
2019-04-06T19:26:15.054Z,33.17
2019-04-06T19:28:49.339Z,26.77
2019-04-06T19:34:14.007Z,32.93
2019-04-06T19:36:43.197Z,23.23
2019-04-06T19:39:20.063Z,27.47
2019-04-06T19:41:51.114Z,26.57
2019-04-06T19:44:24.919Z,26.53
2019-04-06T19:47:00.930Z,30.33
2019-04-06T19:49:42.482Z,25.23
2019-04-06T19:52:19.863Z,27.47
2019-04-06T19:54:55.750Z,30.80
2019-04-06T19:57:30.581Z,27.37
2019-04-06T20:00:06.785Z,32.33
2019-04-06T20:02:47.427Z,30.30
2019-04-06T20:05:31.868Z,31.80
2019-04-06T20:08:06.022Z,35.77
2019-04-06T20:10:44.141Z,34.17
2019-04-06T20:13:15.649Z,34.23
2019-04-06T20:15:50.644Z,39.23
2019-04-06T20:18:26.291Z,33.00
2019-04-06T20:21:06.343Z,46.80
2019-04-06T20:23:38.016Z,38.10
2019-04-06T20:26:07.812Z,34.33
2019-04-06T20:28:44.640Z,38.90
2019-04-06T20:31:15.015Z,42.43
2019-04-06T20:33:52.324Z,41.47
2019-04-06T20:36:30.611Z,43.67
2019-04-06T20:39:02.174Z,38.03
2019-04-06T20:41:35.773Z,37.97
2019-04-06T20:44:06.378Z,41.30
2019-04-06T20:46:36.211Z,37.67
2019-04-06T20:49:10.871Z,38.43
2019-04-06T20:51:41.261Z,40.30
2019-04-06T20:54:15.339Z,40.37
2019-04-06T20:56:56.375Z,36.57
2019-04-06T21:02:19.843Z,37.03
2019-04-06T21:05:05.634Z,37.93
2019-04-06T21:07:35.995Z,35.13
2019-04-06T21:10:14.084Z,44.03
2019-04-06T21:12:47.639Z,36.73
2019-04-06T21:15:21.191Z,40.93
2019-04-06T21:17:53.932Z,40.57
2019-04-06T21:20:26.522Z,43.87
2019-04-06T21:23:13.875Z,45.40
2019-04-06T21:25:48.061Z,42.90
2019-04-06T21:28:24.502Z,34.23
2019-04-06T21:31:04.644Z,38.90
2019-04-06T21:33:34.195Z,34.20
2019-04-06T21:36:07.263Z,37.23
2019-04-06T21:38:41.529Z,43.47
2019-04-06T21:41:24.598Z,41.70
2019-04-06T21:44:00.052Z,47.03
2019-04-06T21:46:32.660Z,51.00
2019-04-06T21:49:11.560Z,40.37
2019-04-06T21:51:47.140Z,42.03
2019-04-06T21:54:21.056Z,46.43
2019-04-06T21:56:50.200Z,41.03
2019-04-06T21:59:23.452Z,41.07
2019-04-06T22:01:55.852Z,36.80
2019-04-06T22:04:31.571Z,44.87
2019-04-06T22:07:06.417Z,40.20
2019-04-06T22:09:42.629Z,39.93
2019-04-06T22:12:08.589Z,43.83
2019-04-06T22:14:39.661Z,43.73
2019-04-06T22:17:12.079Z,40.10
2019-04-06T22:19:41.014Z,39.83
2019-04-06T22:22:16.826Z,39.20
2019-04-06T22:24:48.467Z,50.27
2019-04-06T22:27:19.537Z,40.23
2019-04-06T22:29:49.908Z,36.17
2019-04-06T22:32:20.911Z,43.80
2019-04-06T22:34:52.337Z,42.70
2019-04-06T22:37:22.427Z,39.93
2019-04-06T22:39:55.068Z,40.13
2019-04-06T22:42:23.874Z,40.13
2019-04-06T22:44:55.971Z,43.37
2019-04-06T22:47:31.341Z,39.37
2019-04-06T22:50:02.636Z,40.13
2019-04-06T22:52:33.598Z,35.80
2019-04-06T22:55:04.046Z,40.07
2019-04-06T22:57:41.050Z,35.87
2019-04-06T23:00:16.774Z,39.37
2019-04-06T23:03:07.073Z,36.40
2019-04-06T23:05:42.817Z,35.20
2019-04-06T23:08:14.592Z,36.93
2019-04-06T23:10:47.594Z,39.60
2019-04-06T23:13:17.698Z,35.73
2019-04-06T23:15:51.959Z,41.00
2019-04-06T23:18:25.681Z,32.37
2019-04-06T23:20:54.005Z,42.40
2019-04-06T23:23:24.762Z,38.43
2019-04-06T23:26:05.187Z,37.17
2019-04-06T23:28:36.765Z,41.07
2019-04-06T23:31:11.142Z,43.00
2019-04-06T23:33:41.283Z,41.20
2019-04-06T23:36:13.440Z,36.33
2019-04-06T23:44:26.208Z,37.10
2019-04-06T23:47:00.455Z,38.90
2019-04-06T23:49:30.262Z,36.10
2019-04-06T23:51:59.001Z,37.60
2019-04-06T23:54:28.085Z,36.23
2019-04-06T23:56:59.127Z,35.37
2019-04-06T23:59:29.913Z,39.33
